Time;durP1;ratioP1;P1;durP2;ratioP2;P2;SDS_P1;SDS_P2;PMS_P1;PMS_P2;Temp;Humidity;BMP_temperature;BMP_pressure;BME280_temperature;BME280_humidity;BME280_pressure;Samples;Min_cycle;Max_cycle;Signal;HPM_P1;HPM_P2
2021/06/01 00:02:21;;;;;;;5.43;2.63;;;;;;;10.19;52.27;95824.59;5033584;28;20645;-75
2021/06/01 00:04:46;;;;;;;3.43;2.80;;;;;;;10.12;52.20;95833.06;5051024;28;20261;-74
2021/06/01 00:07:11;;;;;;;2.70;2.50;;;;;;;10.12;52.26;95823.50;5052141;28;20209;-74
2021/06/01 00:09:37;;;;;;;2.40;2.20;;;;;;;10.03;52.71;95823.50;5051112;28;20199;-75
2021/06/01 00:12:02;;;;;;;4.43;2.50;;;;;;;10.03;52.42;95826.13;5033178;28;20189;-74
2021/06/01 00:14:28;;;;;;;2.70;2.50;;;;;;;10.01;52.36;95817.66;5049661;28;20206;-74
2021/06/01 00:16:55;;;;;;;3.60;2.83;;;;;;;9.97;52.23;95811.91;5050693;28;20201;-75
2021/06/01 00:19:20;;;;;;;4.30;2.43;;;;;;;9.93;52.66;95816.56;5052273;28;20269;-74
2021/06/01 00:21:46;;;;;;;2.87;2.67;;;;;;;9.93;52.80;95816.56;5050750;28;20261;-74
2021/06/01 00:24:11;;;;;;;3.00;2.70;;;;;;;9.88;53.08;95810.94;5048608;28;20210;-74
2021/06/01 00:26:38;;;;;;;4.00;2.53;;;;;;;9.88;52.88;95813.53;5052032;28;20170;-74
2021/06/01 00:29:04;;;;;;;4.40;2.57;;;;;;;9.86;53.11;95812.03;5050842;28;20177;-74
2021/06/01 00:31:30;;;;;;;2.53;2.33;;;;;;;9.97;52.71;95811.91;5033766;28;20189;-74
2021/06/01 00:33:55;;;;;;;2.60;2.40;;;;;;;9.92;52.88;95811.50;5051001;28;20217;-74
2021/06/01 00:36:21;;;;;;;2.73;2.53;;;;;;;9.96;52.97;95809.44;5084053;28;20252;-74
2021/06/01 00:38:46;;;;;;;2.50;2.30;;;;;;;9.86;53.00;95815.47;5034032;28;20197;-75
2021/06/01 00:41:11;;;;;;;4.63;2.77;;;;;;;9.88;53.04;95804.94;5050394;28;20186;-75
2021/06/01 00:43:37;;;;;;;2.77;2.57;;;;;;;9.85;52.94;95802.63;5050630;28;20201;-74
2021/06/01 00:46:02;;;;;;;4.43;2.63;;;;;;;9.73;53.24;95801.97;5049494;28;20242;-75
2021/06/01 00:48:28;;;;;;;3.10;2.60;;;;;;;9.71;53.20;95798.66;5050104;28;20555;-75
2021/06/01 00:50:53;;;;;;;3.83;2.87;;;;;;;9.79;53.35;95797.97;5050197;28;20676;-74
2021/06/01 00:53:18;;;;;;;2.83;2.53;;;;;;;9.74;53.06;95801.00;5050286;28;20220;-75
2021/06/01 00:55:44;;;;;;;2.57;2.30;;;;;;;9.76;53.24;95796.50;5049232;28;20221;-75
2021/06/01 00:58:09;;;;;;;3.03;2.63;;;;;;;9.74;53.29;95800.19;5033624;28;20181;-75
2021/06/01 01:03:00;;;;;;;4.83;2.60;;;;;;;9.69;53.53;95800.56;5050166;28;20216;-74
2021/06/01 01:05:31;;;;;;;2.70;2.50;;;;;;;9.62;53.83;95796.88;5050449;28;20201;-74
2021/06/01 01:11:37;;;;;;;3.13;2.53;;;;;;;9.46;53.97;95802.63;5002274;28;20234;-74
2021/06/01 01:14:07;;;;;;;4.53;2.30;;;;;;;9.39;54.41;95811.06;5006078;28;20204;-75
2021/06/01 01:16:34;;;;;;;2.70;2.50;;;;;;;9.36;54.52;95804.34;4994234;28;20306;-75
2021/06/01 01:19:09;;;;;;;2.57;2.37;;;;;;;9.34;54.47;95793.31;5009060;28;20183;-74
2021/06/01 01:21:37;;;;;;;2.80;2.50;;;;;;;9.30;54.59;95808.31;4992608;28;20289;-74
2021/06/01 01:24:17;;;;;;;3.13;2.80;;;;;;;9.30;54.66;95803.13;5009147;28;20202;-74
2021/06/01 01:26:54;;;;;;;2.43;2.23;;;;;;;9.28;54.79;95805.03;4991971;28;20601;-73
2021/06/01 01:29:36;;;;;;;3.90;2.57;;;;;;;9.22;54.98;95800.38;4992565;28;20658;-74
2021/06/01 01:32:04;;;;;;;2.60;2.37;;;;;;;9.17;54.90;95797.34;5008977;28;20209;-75
2021/06/01 01:34:30;;;;;;;2.93;2.47;;;;;;;9.16;55.14;95798.31;5009051;28;20211;-75
2021/06/01 01:36:56;;;;;;;3.07;2.67;;;;;;;9.14;55.23;95799.41;5009172;28;20211;-74
2021/06/01 01:39:23;;;;;;;4.00;2.53;;;;;;;9.10;55.24;95801.44;5007945;28;20269;-75
2021/06/01 01:41:50;;;;;;;2.67;2.43;;;;;;;9.03;55.79;95800.34;5008626;28;20286;-74
2021/06/01 01:44:17;;;;;;;3.00;2.53;;;;;;;8.95;56.04;95801.00;4992663;28;20221;-75
2021/06/01 01:49:18;;;;;;;3.50;3.20;;;;;;;8.95;56.23;95801.00;5048805;28;20273;-73
2021/06/01 01:51:45;;;;;;;3.00;2.70;;;;;;;9.05;55.79;95801.03;5049252;28;20668;-74
2021/06/01 01:54:13;;;;;;;3.73;2.60;;;;;;;9.01;56.06;95795.28;5032971;28;20233;-75
2021/06/01 01:56:42;;;;;;;3.07;2.77;;;;;;;9.06;55.66;95797.47;5050776;28;20248;-75
2021/06/01 01:59:11;;;;;;;2.70;2.50;;;;;;;8.96;55.88;95791.44;5048989;28;20186;-74
2021/06/01 02:01:37;;;;;;;4.67;2.87;;;;;;;8.92;56.09;95790.06;5050515;28;20253;-75
2021/06/01 02:04:04;;;;;;;2.73;2.53;;;;;;;8.84;56.03;95790.72;5049622;28;20201;-74
2021/06/01 02:06:30;;;;;;;3.90;2.77;;;;;;;8.90;56.23;95803.13;5032880;28;20197;-75
2021/06/01 02:08:55;;;;;;;3.23;2.40;;;;;;;8.84;56.47;95802.88;5049715;28;20224;-75
2021/06/01 02:11:21;;;;;;;2.83;2.43;;;;;;;8.80;56.49;95795.34;5047283;28;20432;-74
2021/06/01 02:13:54;;;;;;;4.37;2.60;;;;;;;8.75;56.86;95794.94;5049490;28;20201;-74
2021/06/01 02:16:20;;;;;;;4.63;2.73;;;;;;;8.79;56.82;95792.88;5049647;28;20228;-74
2021/06/01 02:18:46;;;;;;;6.80;3.10;;;;;;;8.74;57.24;95788.09;5049601;28;20174;-75
2021/06/01 02:24:31;;;;;;;3.10;2.80;;;;;;;8.69;56.78;95786.84;5053294;28;20206;-74
2021/06/01 02:27:04;;;;;;;4.03;2.90;;;;;;;8.61;56.83;95784.91;5052721;28;20637;-74
2021/06/01 02:29:52;;;;;;;3.07;2.57;;;;;;;8.58;57.45;95790.34;5032907;28;20197;-74
2021/06/01 02:32:18;;;;;;;5.13;2.93;;;;;;;8.69;56.76;95790.25;5048000;28;20303;-74
2021/06/01 02:34:45;;;;;;;3.77;2.93;;;;;;;8.53;57.12;95787.31;5052903;28;20657;-74
2021/06/01 02:37:10;;;;;;;2.80;2.60;;;;;;;8.56;57.21;95789.63;5052731;28;20685;-75
2021/06/01 02:39:36;;;;;;;5.73;3.17;;;;;;;8.53;57.47;95789.91;5054105;28;20201;-75
2021/06/01 02:42:06;;;;;;;3.80;2.63;;;;;;;8.49;57.84;95785.94;5051366;28;20217;-74
2021/06/01 02:44:33;;;;;;;5.03;2.83;;;;;;;8.49;57.51;95783.38;5052621;28;20197;-74
2021/06/01 02:46:59;;;;;;;3.27;2.70;;;;;;;8.49;57.40;95781.59;5052867;28;20201;-74
2021/06/01 02:49:25;;;;;;;2.63;2.43;;;;;;;8.48;57.45;95792.06;5052759;28;20182;-74
2021/06/01 02:51:53;;;;;;;3.57;3.03;;;;;;;8.39;57.60;95783.31;5052250;28;20190;-75
2021/06/01 02:54:18;;;;;;;3.13;2.83;;;;;;;8.40;57.83;95781.56;5052020;28;20243;-75
2021/06/01 02:56:44;;;;;;;3.33;2.73;;;;;;;8.38;57.99;95784.25;5053563;28;20210;-74
2021/06/01 02:59:09;;;;;;;3.93;2.93;;;;;;;8.44;57.81;95772.56;5052594;28;20174;-74
2021/06/01 03:01:35;;;;;;;3.77;2.73;;;;;;;8.35;57.84;95779.34;5052239;28;20184;-74
2021/06/01 03:04:00;;;;;;;3.27;2.97;;;;;;;8.30;58.37;95783.22;5050113;28;20279;-74
2021/06/01 03:06:27;;;;;;;3.00;2.80;;;;;;;8.28;57.98;95780.75;5052205;28;20554;-74
2021/06/01 03:08:53;;;;;;;3.10;2.80;;;;;;;8.32;58.02;95771.81;5052075;28;20174;-74
2021/06/01 03:11:20;;;;;;;4.17;2.77;;;;;;;8.30;58.24;95773.69;5035417;28;20605;-73
2021/06/01 03:13:46;;;;;;;3.57;3.10;;;;;;;8.26;58.11;95771.50;5051182;28;20202;-74
2021/06/01 03:16:12;;;;;;;3.53;2.90;;;;;;;8.27;58.23;95771.34;5053160;28;20831;-75
2021/06/01 03:18:38;;;;;;;5.37;3.40;;;;;;;8.30;57.95;95778.03;5052168;28;20216;-75
2021/06/01 03:21:04;;;;;;;2.97;2.67;;;;;;;8.30;58.14;95773.69;5051788;28;20210;-75
2021/06/01 03:23:29;;;;;;;3.53;3.03;;;;;;;8.31;58.18;95777.09;5053112;28;20217;-75
2021/06/01 03:25:55;;;;;;;6.50;3.07;;;;;;;8.33;58.19;95781.19;5050809;28;20705;-74
2021/06/01 03:28:20;;;;;;;3.50;3.07;;;;;;;8.34;57.87;95784.59;5051775;28;20178;-74
2021/06/01 03:30:48;;;;;;;3.07;2.77;;;;;;;8.38;57.57;95786.00;5035033;28;20182;-74
2021/06/01 03:33:13;;;;;;;3.57;2.43;;;;;;;8.41;57.88;95786.59;5050774;28;20579;-75
2021/06/01 03:35:39;;;;;;;2.97;2.67;;;;;;;8.44;57.70;95783.72;5050573;28;20235;-74
2021/06/01 03:38:04;;;;;;;3.20;2.80;;;;;;;8.45;57.79;95784.56;5051707;28;20178;-74
2021/06/01 03:40:30;;;;;;;4.30;3.03;;;;;;;8.47;57.67;95780.88;5051464;28;20166;-75
2021/06/01 03:42:55;;;;;;;2.97;2.67;;;;;;;8.49;57.60;95781.59;5051646;28;20175;-74
2021/06/01 03:45:23;;;;;;;4.50;2.90;;;;;;;8.54;57.31;95776.00;5051726;28;20178;-74
2021/06/01 03:47:48;;;;;;;3.07;2.80;;;;;;;8.56;57.42;95781.88;5051393;28;20711;-74
2021/06/01 03:50:14;;;;;;;3.97;3.20;;;;;;;8.61;57.54;95790.09;5051377;28;20185;-74
2021/06/01 03:52:39;;;;;;;5.07;2.67;;;;;;;9.13;56.26;95790.81;5051332;28;20268;-76
2021/06/01 03:55:05;;;;;;;3.77;2.83;;;;;;;11.09;51.47;95791.28;5051445;28;20232;-74
2021/06/01 03:57:31;;;;;;;3.77;2.43;;;;;;;12.48;46.73;95791.59;5050258;28;20209;-75
2021/06/01 03:59:56;;;;;;;3.13;2.83;;;;;;;13.40;44.66;95790.09;5051415;28;20608;-74
2021/06/01 04:02:22;;;;;;;2.83;2.57;;;;;;;15.29;39.17;95788.00;5051213;28;20189;-74
2021/06/01 04:04:49;;;;;;;7.23;2.73;;;;;;;16.18;38.78;95789.28;5051013;28;20190;-75
2021/06/01 04:07:15;;;;;;;2.87;2.60;;;;;;;16.65;36.97;95788.19;5050272;28;20228;-75
2021/06/01 04:09:40;;;;;;;2.90;2.70;;;;;;;16.65;35.83;95785.56;5051151;28;20177;-75
2021/06/01 04:12:06;;;;;;;4.03;2.35;;;;;;;17.31;35.24;95796.16;5051032;28;20174;-75
2021/06/01 04:14:31;;;;;;;3.15;2.90;;;;;;;17.40;34.47;95790.63;5051042;28;20284;-75
2021/06/01 04:16:58;;;;;;;3.00;2.60;;;;;;;18.16;33.46;95785.81;5034311;28;20209;-76
2021/06/01 04:19:23;;;;;;;3.38;2.53;;;;;;;19.04;31.32;95799.44;5050156;28;20186;-75
2021/06/01 04:21:48;;;;;;;2.90;2.60;;;;;;;19.51;30.54;95791.53;5050580;28;20255;-76
2021/06/01 04:24:14;;;;;;;3.17;2.70;;;;;;;18.80;31.07;95793.59;5034587;28;20194;-75
2021/06/01 04:26:39;;;;;;;2.70;2.15;;;;;;;19.03;30.86;95787.28;5052212;28;20189;-75
2021/06/01 04:29:05;;;;;;;3.20;2.13;;;;;;;19.36;30.35;95790.91;5049929;28;20185;-74
2021/06/01 04:31:31;;;;;;;2.53;2.33;;;;;;;20.21;28.73;95786.88;5033671;28;20178;-74
2021/06/01 04:33:56;;;;;;;2.25;2.03;;;;;;;20.48;28.34;95790.38;5050657;28;20204;-74
2021/06/01 04:36:23;;;;;;;3.67;2.42;;;;;;;21.14;28.21;95798.22;5051907;28;20292;-77
2021/06/01 04:38:48;;;;;;;2.10;1.90;;;;;;;21.66;26.84;95795.63;5049732;28;20190;-76
2021/06/01 04:41:14;;;;;;;2.42;2.08;;;;;;;22.47;25.73;95795.75;5050842;28;20251;-75
2021/06/01 04:43:39;;;;;;;2.30;2.10;;;;;;;22.83;24.74;95799.53;5050355;28;20194;-76
2021/06/01 04:46:04;;;;;;;3.97;2.28;;;;;;;22.12;25.93;95792.75;5051475;28;20169;-74
2021/06/01 04:48:30;;;;;;;1.60;1.50;;;;;;;23.23;24.58;95791.19;5050501;28;20202;-76
2021/06/01 04:50:55;;;;;;;3.53;2.30;;;;;;;24.27;23.74;95790.88;5032228;28;20231;-74
2021/06/01 04:53:20;;;;;;;2.40;2.20;;;;;;;23.47;24.13;95787.66;5050028;28;20635;-72
2021/06/01 04:55:45;;;;;;;2.15;1.95;;;;;;;23.74;23.57;95790.81;5043687;28;20292;-74
2021/06/01 04:58:11;;;;;;;3.35;2.30;;;;;;;24.08;23.49;95783.22;5041656;28;20186;-74
2021/06/01 05:00:36;;;;;;;2.83;2.38;;;;;;;24.80;22.96;95787.41;5045795;28;20182;-74
2021/06/01 05:03:01;;;;;;;2.45;2.25;;;;;;;25.72;21.53;95783.31;5051093;28;20272;-74
2021/06/01 05:05:27;;;;;;;2.05;1.90;;;;;;;24.77;22.43;95785.22;5051345;28;20161;-74
2021/06/01 05:07:54;;;;;;;2.10;1.90;;;;;;;25.27;21.99;95778.66;5033610;28;20181;-74
2021/06/01 05:10:20;;;;;;;1.75;1.65;;;;;;;25.51;21.38;95788.16;5049939;28;20177;-73
2021/06/01 05:12:45;;;;;;;2.30;2.10;;;;;;;25.68;22.00;95782.91;5047992;28;20200;-74
2021/06/01 05:15:11;;;;;;;2.78;2.00;;;;;;;25.82;21.03;95784.31;5049667;28;20191;-74
2021/06/01 05:17:36;;;;;;;2.15;1.67;;;;;;;26.25;20.64;95786.41;5049887;28;20209;-74
2021/06/01 05:20:02;;;;;;;3.58;2.00;;;;;;;24.39;22.53;95787.50;5033087;28;20271;-73
2021/06/01 05:22:28;;;;;;;2.28;2.05;;;;;;;26.40;20.48;95780.56;5047705;28;20203;-73
2021/06/01 05:24:53;;;;;;;2.63;2.00;;;;;;;26.09;21.36;95781.88;5051089;28;20202;-73
2021/06/01 05:27:18;;;;;;;2.58;1.90;;;;;;;26.19;20.63;95781.22;5051164;28;20177;-74
2021/06/01 05:29:51;;;;;;;2.35;2.00;;;;;;;26.52;20.57;95786.63;5049924;28;20178;-74
2021/06/01 05:35:03;;;;;;;2.50;1.88;;;;;;;26.56;20.44;95786.13;5050915;28;20746;-74
2021/06/01 05:37:35;;;;;;;2.40;1.92;;;;;;;25.93;20.82;95780.78;5048928;28;20235;-75
2021/06/01 05:40:00;;;;;;;1.73;1.63;;;;;;;26.69;19.80;95788.50;5033391;28;20178;-74
2021/06/01 05:42:26;;;;;;;2.90;1.85;;;;;;;26.33;20.48;95790.53;5048858;28;20185;-75
2021/06/01 05:44:51;;;;;;;2.20;2.00;;;;;;;28.23;18.74;95782.19;5048318;28;20208;-74
2021/06/01 05:47:17;;;;;;;2.25;1.92;;;;;;;27.75;18.88;95788.38;5049682;28;20170;-74
2021/06/01 05:49:43;;;;;;;4.82;2.30;;;;;;;26.77;20.38;95775.56;5032898;28;20193;-74
2021/06/01 05:52:09;;;;;;;3.40;1.98;;;;;;;27.68;18.65;95785.09;5049395;28;20189;-74
2021/06/01 05:54:35;;;;;;;2.22;2.03;;;;;;;27.16;20.11;95777.47;5048646;28;20224;-75
2021/06/01 05:57:00;;;;;;;2.00;1.90;;;;;;;26.60;19.46;95774.78;5049661;28;20194;-74
2021/06/01 05:59:26;;;;;;;4.85;2.08;;;;;;;26.60;20.20;95785.41;5053569;28;20174;-75
2021/06/01 06:01:51;;;;;;;3.33;1.90;;;;;;;26.71;20.27;95783.72;5053349;28;20181;-75
2021/06/01 06:04:16;;;;;;;2.60;1.90;;;;;;;26.62;20.16;95788.66;5052325;28;20216;-74
2021/06/01 06:06:42;;;;;;;2.30;2.10;;;;;;;26.70;20.02;95785.56;5086739;28;20174;-74
2021/06/01 06:09:07;;;;;;;2.22;2.03;;;;;;;26.37;20.30;95786.34;5053541;28;20608;-74
2021/06/01 06:11:33;;;;;;;2.38;1.90;;;;;;;26.59;19.73;95789.09;5052860;28;20286;-74
2021/06/01 06:13:58;;;;;;;2.97;2.30;;;;;;;25.59;21.35;95787.00;5054532;28;20220;-74
2021/06/01 06:16:25;;;;;;;2.17;2.03;;;;;;;26.68;19.65;95792.16;5052110;28;20616;-73
2021/06/01 06:18:58;;;;;;;3.53;1.90;;;;;;;26.58;19.57;95787.50;5053108;28;20260;-73
2021/06/01 06:21:23;;;;;;;2.08;1.90;;;;;;;26.21;20.69;95784.47;5052998;28;20177;-74
2021/06/01 06:23:49;;;;;;;3.53;2.30;;;;;;;26.63;19.79;95787.59;5053034;28;20198;-73
2021/06/01 06:26:14;;;;;;;3.17;1.80;;;;;;;26.23;20.70;95785.81;5052029;28;20223;-74
2021/06/01 06:28:40;;;;;;;2.50;2.25;;;;;;;26.93;20.17;95789.09;5053895;28;20178;-74
2021/06/01 06:31:05;;;;;;;2.10;1.90;;;;;;;26.91;19.56;95796.53;5054196;28;20181;-74
2021/06/01 06:33:30;;;;;;;2.03;1.85;;;;;;;27.03;19.80;95794.59;5053934;28;20604;-73
2021/06/01 06:35:56;;;;;;;2.67;2.20;;;;;;;24.78;22.02;95783.38;5051933;28;20742;-72
2021/06/01 06:38:21;;;;;;;1.92;1.80;;;;;;;25.25;21.41;95786.03;5051886;28;20192;-73
2021/06/01 06:41:00;;;;;;;4.25;2.13;;;;;;;25.09;21.79;95784.88;5052257;28;20531;-74
2021/06/01 06:43:26;;;;;;;2.30;2.10;;;;;;;25.80;21.25;95780.28;5052887;28;20205;-73
2021/06/01 06:45:51;;;;;;;2.58;1.75;;;;;;;25.81;21.24;95781.88;5053871;28;20174;-74
2021/06/01 06:48:16;;;;;;;2.42;2.10;;;;;;;25.62;21.35;95779.38;5035007;28;20240;-74
2021/06/01 06:50:42;;;;;;;3.33;1.70;;;;;;;26.17;20.77;95778.81;5053398;28;20182;-75
2021/06/01 06:53:07;;;;;;;3.20;2.53;;;;;;;24.81;22.41;95777.59;5053397;28;20692;-75
2021/06/01 06:55:33;;;;;;;3.85;1.83;;;;;;;24.74;22.16;95776.94;5035627;28;20192;-74
2021/06/01 06:57:59;;;;;;;2.30;1.80;;;;;;;25.09;21.69;95782.22;5050449;28;20182;-75
2021/06/01 07:00:24;;;;;;;3.97;2.38;;;;;;;25.52;22.28;95781.81;5053337;28;20185;-75
2021/06/01 07:02:50;;;;;;;3.38;2.47;;;;;;;24.52;22.54;95779.31;5052178;28;20177;-74
2021/06/01 07:05:17;;;;;;;4.95;2.50;;;;;;;25.00;21.63;95781.78;5035716;28;20553;-74
2021/06/01 07:07:43;;;;;;;3.10;2.10;;;;;;;24.62;22.49;95786.72;5051902;28;20645;-74
2021/06/01 07:10:38;;;;;;;5.43;2.10;;;;;;;24.44;23.10;95779.66;5034440;28;20202;-74
2021/06/01 07:13:09;;;;;;;3.65;2.47;;;;;;;24.00;23.69;95771.91;4991518;28;20188;-74
2021/06/01 07:15:45;;;;;;;6.90;2.28;;;;;;;23.93;23.83;95781.78;4990953;28;20188;-74
2021/06/01 07:18:11;;;;;;;8.18;2.10;;;;;;;24.10;23.80;95775.84;4991133;28;20183;-73
2021/06/01 07:20:36;;;;;;;6.53;2.70;;;;;;;23.60;24.25;95784.09;4982164;28;20187;-73
2021/06/01 07:23:02;;;;;;;3.95;2.78;;;;;;;23.88;24.46;95772.91;4991955;28;20653;-74
2021/06/01 07:25:28;;;;;;;7.85;2.17;;;;;;;24.25;23.81;95773.59;4994732;28;20227;-74
2021/06/01 07:27:54;;;;;;;4.25;2.40;;;;;;;23.93;24.53;95770.38;5011165;28;20273;-73
2021/06/01 07:30:19;;;;;;;6.30;2.28;;;;;;;23.07;25.70;95768.75;4986261;28;20281;-77
2021/06/01 07:32:44;;;;;;;5.88;2.22;;;;;;;22.87;25.87;95767.09;4986448;28;20270;-78
2021/06/01 07:35:11;;;;;;;3.80;2.28;;;;;;;23.30;25.73;95766.25;5010853;28;20210;-77
2021/06/01 07:37:36;;;;;;;4.53;2.30;;;;;;;23.76;24.78;95748.97;4978355;28;20558;-75
2021/06/01 07:40:01;;;;;;;4.68;2.60;;;;;;;23.70;24.31;95753.34;5008020;28;20197;-74
2021/06/01 07:42:27;;;;;;;3.65;2.40;;;;;;;23.78;24.48;95760.19;4998998;28;20254;-75
2021/06/01 07:44:52;;;;;;;3.03;2.35;;;;;;;23.48;24.74;95765.41;4991240;28;20200;-74
2021/06/01 07:47:17;;;;;;;2.25;2.05;;;;;;;23.52;25.26;95763.97;4974745;28;20188;-74
2021/06/01 07:49:43;;;;;;;3.50;2.20;;;;;;;23.33;25.83;95760.53;5028695;28;20204;-74
2021/06/01 07:52:08;;;;;;;2.05;1.90;;;;;;;22.67;25.65;95760.34;5049820;28;20189;-74
2021/06/01 07:54:34;;;;;;;2.88;2.33;;;;;;;22.86;24.91;95754.91;5052550;28;20201;-75
2021/06/01 07:57:00;;;;;;;3.22;2.17;;;;;;;22.75;25.03;95762.72;5052427;28;20204;-74
2021/06/01 07:59:25;;;;;;;1.95;1.83;;;;;;;22.49;26.17;95756.66;5034799;28;20181;-75
2021/06/01 08:01:50;;;;;;;4.00;2.28;;;;;;;22.57;25.26;95758.22;5050116;28;20182;-76
2021/06/01 08:04:16;;;;;;;3.80;2.20;;;;;;;21.92;26.29;95752.38;5052111;28;20209;-75
2021/06/01 08:06:41;;;;;;;2.22;1.98;;;;;;;21.96;25.49;95749.06;5034515;28;20224;-74
2021/06/01 08:09:07;;;;;;;4.25;2.38;;;;;;;21.86;26.24;95747.94;5051052;28;20223;-75
2021/06/01 08:11:33;;;;;;;3.83;2.17;;;;;;;21.81;27.01;95755.69;5052139;28;20194;-75
2021/06/01 08:13:59;;;;;;;3.20;1.98;;;;;;;21.24;26.27;95752.88;5049886;28;20685;-75
2021/06/01 08:16:24;;;;;;;3.33;1.90;;;;;;;21.01;27.24;95750.69;5050815;28;20213;-75
2021/06/01 08:19:15;;;;;;;4.47;2.53;;;;;;;21.19;26.71;95742.91;5050735;28;20777;-75
2021/06/01 08:22:11;;;;;;;2.97;2.17;;;;;;;20.85;27.26;95735.34;5051558;28;20196;-75
2021/06/01 08:24:27;;;;;;;4.90;2.30;;;;;;;20.57;27.73;95733.75;5050268;28;20212;-75
2021/06/01 08:26:52;;;;;;;3.22;1.90;;;;;;;20.58;28.08;95729.28;5033890;28;20654;-74
2021/06/01 08:29:18;;;;;;;3.40;2.20;;;;;;;20.89;26.97;95731.25;5050675;28;20181;-74
2021/06/01 08:31:44;;;;;;;4.40;2.05;;;;;;;20.82;26.85;95741.81;5033797;28;20173;-75
2021/06/01 08:34:10;;;;;;;5.20;2.08;;;;;;;20.35;27.97;95738.41;5049649;28;20579;-75
2021/06/01 08:36:36;;;;;;;2.85;2.05;;;;;;;20.53;27.98;95743.09;5050311;28;20275;-75
2021/06/01 08:39:05;;;;;;;3.63;2.03;;;;;;;20.79;29.24;95741.44;5034077;28;20307;-75
2021/06/01 08:41:30;;;;;;;2.47;2.10;;;;;;;20.07;28.97;95743.88;5050852;28;20771;-76
2021/06/01 08:43:59;;;;;;;4.13;1.95;;;;;;;20.78;27.79;95737.97;5050584;28;20213;-73
2021/06/01 08:46:25;;;;;;;3.25;2.17;;;;;;;20.48;27.14;95740.25;5049497;28;20174;-73
2021/06/01 08:48:52;;;;;;;3.03;2.28;;;;;;;20.14;28.39;95733.31;5051563;28;20189;-74
2021/06/01 08:51:20;;;;;;;3.00;2.08;;;;;;;20.08;28.59;95747.31;5033398;28;20178;-74
2021/06/01 08:53:47;;;;;;;3.95;1.92;;;;;;;20.17;28.02;95734.75;5030386;28;20194;-73
2021/06/01 08:56:12;;;;;;;4.57;2.08;;;;;;;20.38;28.65;95742.44;5032533;28;20212;-74
2021/06/01 08:58:38;;;;;;;2.92;1.98;;;;;;;20.37;27.62;95743.47;5050051;28;20186;-75
2021/06/01 09:01:03;;;;;;;2.80;1.98;;;;;;;19.84;29.31;95745.25;5033385;28;20658;-73
2021/06/01 09:03:29;;;;;;;2.50;2.00;;;;;;;20.07;28.78;95743.06;5033612;28;20201;-74
2021/06/01 09:06:13;;;;;;;5.50;2.33;;;;;;;20.47;28.96;95730.72;5049228;28;20170;-74
2021/06/01 09:08:42;;;;;;;3.85;2.10;;;;;;;20.43;26.81;95731.31;5073514;28;20268;-73
2021/06/01 09:11:16;;;;;;;4.30;2.17;;;;;;;20.51;28.41;95723.22;5050945;28;20660;-74
2021/06/01 09:14:09;;;;;;;2.33;1.92;;;;;;;20.68;27.37;95742.06;5049978;28;20677;-74
2021/06/01 09:22:03;;;;;;;2.08;1.88;;;;;;;20.44;29.79;95732.97;5050872;28;20222;-73
2021/06/01 09:24:28;;;;;;;4.07;2.10;;;;;;;20.19;27.98;95727.44;5051276;28;20221;-73
2021/06/01 09:29:28;;;;;;;3.72;2.30;;;;;;;20.48;28.34;95724.41;5050943;28;20177;-74
2021/06/01 09:32:08;;;;;;;2.97;2.08;;;;;;;20.07;29.22;95712.25;5050666;28;20170;-73
2021/06/01 09:34:39;;;;;;;2.17;1.98;;;;;;;19.90;30.37;95716.28;5054128;28;20196;-73
2021/06/01 09:37:32;;;;;;;5.25;2.47;;;;;;;19.73;28.37;95704.50;5053875;28;20247;-74
2021/06/01 09:40:13;;;;;;;2.67;2.40;;;;;;;19.70;29.49;95697.00;5052904;28;20581;-74
2021/06/01 09:42:41;;;;;;;2.25;2.00;;;;;;;20.34;29.65;95701.69;5053721;28;20192;-74
2021/06/01 09:45:16;;;;;;;2.45;2.25;;;;;;;20.67;28.74;95704.28;5053770;28;20190;-74
2021/06/01 09:48:04;;;;;;;2.70;2.45;;;;;;;20.86;27.02;95707.91;5070552;28;20173;-73
2021/06/01 09:51:01;;;;;;;4.60;2.30;;;;;;;20.87;28.26;95709.53;5054120;28;20292;-73
2021/06/01 09:53:35;;;;;;;2.40;2.20;;;;;;;20.50;27.94;95703.94;5051387;28;20296;-73
2021/06/01 09:56:01;;;;;;;3.55;2.60;;;;;;;20.72;27.74;95693.13;5053687;28;20202;-73
2021/06/01 09:58:34;;;;;;;4.53;2.47;;;;;;;21.09;27.63;95702.94;5053380;28;20189;-74
2021/06/01 10:01:02;;;;;;;2.22;2.03;;;;;;;21.06;28.91;95699.94;5053711;28;20201;-73
2021/06/01 10:03:38;;;;;;;2.88;2.58;;;;;;;21.21;26.68;95711.84;5053455;28;20280;-74
2021/06/01 10:06:04;;;;;;;3.08;2.55;;;;;;;21.13;27.01;95696.25;5053275;28;20176;-75
2021/06/01 10:08:30;;;;;;;2.05;1.85;;;;;;;21.11;26.70;95689.53;5054680;28;20177;-75
2021/06/01 10:11:04;;;;;;;2.05;1.90;;;;;;;21.23;25.80;95692.34;5052086;28;20258;-72
2021/06/01 10:13:35;;;;;;;2.20;1.77;;;;;;;21.46;26.26;95690.81;5030167;28;20984;-74
2021/06/01 10:16:03;;;;;;;3.72;1.88;;;;;;;21.45;24.57;95693.69;5053012;28;20204;-75
2021/06/01 10:18:30;;;;;;;2.83;2.08;;;;;;;21.30;24.41;95690.53;5053260;28;20177;-75
2021/06/01 10:20:57;;;;;;;3.60;2.10;;;;;;;20.57;27.49;95702.06;5052004;28;20182;-75
2021/06/01 10:23:28;;;;;;;3.20;2.38;;;;;;;20.91;25.31;95687.78;5078028;28;20205;-74
2021/06/01 10:25:55;;;;;;;7.38;1.90;;;;;;;21.23;25.61;95689.72;5053055;28;20174;-75
2021/06/01 10:28:30;;;;;;;2.78;2.05;;;;;;;21.13;26.38;95690.97;5052919;28;20548;-77
2021/06/01 10:30:56;;;;;;;3.35;2.20;;;;;;;21.38;25.88;95687.59;5035759;28;20571;-74
2021/06/01 10:33:23;;;;;;;2.05;1.77;;;;;;;21.77;26.41;95682.09;5052435;28;20760;-73
2021/06/01 10:36:02;;;;;;;3.88;2.03;;;;;;;21.88;25.52;95682.44;5052899;28;20709;-73
2021/06/01 10:44:46;;;;;;;2.72;2.25;;;;;;;21.78;24.78;95681.06;5032573;28;20256;-72
2021/06/01 10:53:34;;;;;;;4.47;2.38;;;;;;;21.36;25.95;95663.25;5041754;28;20205;-73
2021/06/01 10:56:03;;;;;;;2.33;2.13;;;;;;;21.48;24.32;95662.38;5052257;28;20218;-74
2021/06/01 10:58:35;;;;;;;2.97;2.30;;;;;;;21.50;26.02;95659.50;5052377;28;20177;-74
2021/06/01 11:04:07;;;;;;;3.97;2.03;;;;;;;21.10;23.70;95654.41;5049877;28;20271;-72
2021/06/01 11:09:32;;;;;;;1.83;1.73;;;;;;;21.63;24.86;95659.41;5051504;28;20204;-72
2021/06/01 11:11:58;;;;;;;1.85;1.75;;;;;;;21.81;24.47;95647.28;5051083;28;20193;-72
2021/06/01 11:14:32;;;;;;;2.67;2.00;;;;;;;22.13;23.39;95653.38;5052128;28;20194;-75
2021/06/01 11:16:58;;;;;;;2.13;1.92;;;;;;;22.10;24.37;95651.19;5052223;28;20198;-73
2021/06/01 11:19:31;;;;;;;4.85;2.45;;;;;;;22.20;24.87;95646.22;5052020;28;20170;-73
2021/06/01 11:22:02;;;;;;;3.80;1.85;;;;;;;22.36;23.91;95647.50;5050669;28;20701;-73
2021/06/01 11:32:51;;;;;;;3.67;1.77;;;;;;;22.30;22.79;95646.50;5051097;28;20194;-73
2021/06/01 11:35:43;;;;;;;1.92;1.83;;;;;;;22.27;24.09;95645.13;5052907;28;20174;-73
2021/06/01 11:38:22;;;;;;;2.30;2.08;;;;;;;22.13;23.02;95648.09;5026049;28;20186;-72
2021/06/01 11:41:19;;;;;;;3.03;1.98;;;;;;;22.19;23.40;95645.41;5036211;28;20640;-73
2021/06/01 11:43:41;;;;;;;3.65;2.17;;;;;;;22.16;22.99;95648.47;5051456;28;20553;-73
2021/06/01 11:46:13;;;;;;;3.97;2.03;;;;;;;22.19;23.23;95637.47;5031417;28;20182;-74
2021/06/01 11:51:17;;;;;;;4.63;2.13;;;;;;;22.37;22.85;95638.53;5071181;28;20269;-73
2021/06/01 11:54:03;;;;;;;3.80;2.08;;;;;;;21.94;23.33;95628.69;5035354;28;20205;-73
2021/06/01 11:56:49;;;;;;;4.00;2.08;;;;;;;21.66;24.60;95634.41;5043744;28;20221;-74
2021/06/01 12:13:10;;;;;;;3.88;1.77;;;;;;;22.06;23.96;95617.19;5039907;28;20628;-73
2021/06/01 12:18:41;;;;;;;3.97;1.98;;;;;;;21.57;25.32;95604.81;5049852;28;20197;-73
2021/06/01 12:21:08;;;;;;;2.08;1.83;;;;;;;22.14;23.17;95621.44;5048948;28;20170;-74
2021/06/01 12:23:36;;;;;;;2.38;2.05;;;;;;;22.25;24.01;95610.13;5047980;28;20208;-73
2021/06/01 12:26:36;;;;;;;2.97;1.88;;;;;;;22.32;23.85;95618.81;5046980;28;20178;-72
2021/06/01 12:32:04;;;;;;;3.85;2.45;;;;;;;21.75;23.84;95604.84;5049908;28;20307;-72
2021/06/01 12:34:48;;;;;;;2.53;2.03;;;;;;;21.91;24.42;95611.44;5048636;28;20208;-74
2021/06/01 12:43:03;;;;;;;2.08;1.88;;;;;;;22.36;24.32;95605.16;5050625;28;20668;-73
2021/06/01 13:08:11;;;;;;;4.40;2.22;;;;;;;22.16;23.55;95584.19;5076817;28;20181;-73
2021/06/01 13:13:53;;;;;;;2.63;2.10;;;;;;;22.06;22.27;95582.00;5051365;28;20232;-72
2021/06/01 13:21:50;;;;;;;2.78;1.90;;;;;;;23.14;22.91;95573.47;5050110;28;20637;-73
2021/06/01 13:32:33;;;;;;;2.90;1.70;;;;;;;22.93;23.33;95552.78;5050024;28;20235;-74
2021/06/01 13:45:58;;;;;;;2.08;1.90;;;;;;;22.93;19.78;95558.09;5042728;28;20180;-74
2021/06/01 13:46:17;;;;;;;2.95;1.80;;;;;;;22.93;20.84;95560.72;5050131;28;20231;-74
2021/06/01 13:56:16;;;;;;;2.28;2.10;;;;;;;23.23;22.32;95553.56;5049334;28;20244;-73